createdAt,value
2023-04-08T00:02:16.048Z,47.12
2023-04-08T00:04:45.392Z,47.13
2023-04-08T00:07:13.426Z,47.07
2023-04-08T00:09:41.378Z,47.01
2023-04-08T00:12:09.473Z,47.24
2023-04-08T00:14:38.378Z,47.13
2023-04-08T00:17:06.569Z,47.04
2023-04-08T00:19:36.201Z,47.01
2023-04-08T00:22:06.105Z,47.05
2023-04-08T00:24:34.037Z,47.07
2023-04-08T00:27:02.856Z,46.93
2023-04-08T00:29:30.847Z,46.99
2023-04-08T00:31:58.773Z,46.79
2023-04-08T00:34:27.087Z,46.80
2023-04-08T00:36:55.048Z,46.76
2023-04-08T00:39:24.289Z,46.83
2023-04-08T00:41:52.137Z,46.75
2023-04-08T00:44:20.089Z,46.73
2023-04-08T00:46:48.655Z,46.67
2023-04-08T00:49:17.606Z,46.59
2023-04-08T00:51:45.566Z,46.60
2023-04-08T00:54:13.593Z,46.64
2023-04-08T00:56:42.863Z,46.59
2023-04-08T00:59:10.791Z,46.87
2023-04-08T01:01:45.631Z,46.69
2023-04-08T01:04:17.660Z,46.62
2023-04-08T01:06:48.609Z,46.52
2023-04-08T01:09:16.488Z,46.71
2023-04-08T01:11:45.865Z,46.83
2023-04-08T01:14:16.211Z,46.80
2023-04-08T01:16:44.090Z,46.79
2023-04-08T01:19:12.026Z,46.86
2023-04-08T01:21:39.977Z,46.77
2023-04-08T01:24:10.063Z,47.00
2023-04-08T01:26:39.327Z,46.98
2023-04-08T01:29:07.189Z,47.03
2023-04-08T01:31:35.073Z,47.05
2023-04-08T01:34:04.660Z,46.94
2023-04-08T01:36:33.308Z,46.90
2023-04-08T01:39:01.676Z,46.98
2023-04-08T01:41:29.686Z,47.11
2023-04-08T01:43:58.919Z,46.94
2023-04-08T01:46:26.827Z,47.03
2023-04-08T01:48:54.820Z,46.83
2023-04-08T01:51:23.627Z,47.03
2023-04-08T01:53:51.689Z,46.89
2023-04-08T01:56:19.645Z,46.89
2023-04-08T01:58:48.834Z,47.14
2023-04-08T02:01:19.203Z,47.19
2023-04-08T02:03:47.209Z,47.11
2023-04-08T02:06:15.323Z,47.02
2023-04-08T02:08:43.181Z,47.18
2023-04-08T02:11:11.398Z,47.18
2023-04-08T02:13:39.264Z,47.22
2023-04-08T02:16:12.113Z,47.29
2023-04-08T02:18:41.403Z,47.24
2023-04-08T02:21:11.417Z,47.26
2023-04-08T02:23:39.917Z,47.34
2023-04-08T02:26:09.412Z,47.45
2023-04-08T02:28:37.402Z,47.44
2023-04-08T02:31:05.815Z,47.55
2023-04-08T02:33:33.702Z,47.55
2023-04-08T02:36:03.048Z,47.62
2023-04-08T02:38:31.022Z,47.69
2023-04-08T02:40:58.938Z,47.62
2023-04-08T02:43:32.372Z,47.75
2023-04-08T02:46:00.826Z,47.77
2023-04-08T02:48:28.732Z,47.66
2023-04-08T02:50:57.315Z,47.63
2023-04-08T02:53:26.566Z,47.82
2023-04-08T02:55:54.484Z,47.68
2023-04-08T02:58:22.363Z,47.92
2023-04-08T03:00:50.303Z,47.82
2023-04-08T03:03:18.215Z,47.74
2023-04-08T03:05:46.129Z,47.80
2023-04-08T03:08:14.002Z,47.89
2023-04-08T03:10:43.564Z,47.84
2023-04-08T03:13:11.475Z,48.02
2023-04-08T03:15:39.487Z,48.04
2023-04-08T03:18:07.409Z,48.00
2023-04-08T03:20:35.633Z,48.04
2023-04-08T03:23:03.536Z,48.10
2023-04-08T03:25:31.783Z,48.13
2023-04-08T03:28:01.049Z,48.01
2023-04-08T03:30:29.188Z,48.09
2023-04-08T03:32:57.112Z,48.08
2023-04-08T03:35:25.488Z,48.03
2023-04-08T03:37:54.597Z,47.99
2023-04-08T03:40:22.498Z,47.99
2023-04-08T03:42:50.376Z,47.98
2023-04-08T03:45:20.493Z,47.86
2023-04-08T03:47:48.391Z,47.78
2023-04-08T03:50:16.314Z,47.75
2023-04-08T03:52:44.237Z,47.88
2023-04-08T03:55:12.172Z,47.87
2023-04-08T03:57:40.067Z,47.86
2023-04-08T04:00:09.349Z,47.87
2023-04-08T04:02:38.775Z,47.85
2023-04-08T04:05:07.201Z,48.01
2023-04-08T04:07:35.118Z,47.96
2023-04-08T04:10:03.125Z,47.90
2023-04-08T04:12:31.023Z,47.88
2023-04-08T04:14:58.977Z,47.86
2023-04-08T04:17:27.156Z,48.02
2023-04-08T04:19:56.490Z,47.82
2023-04-08T04:22:24.471Z,47.91
2023-04-08T04:24:52.352Z,47.91
2023-04-08T04:27:20.247Z,47.95
2023-04-08T04:29:48.168Z,47.85
2023-04-08T04:32:16.231Z,47.81
2023-04-08T04:34:44.752Z,47.92
2023-04-08T04:37:14.074Z,47.90
2023-04-08T04:39:42.014Z,47.86
2023-04-08T04:42:09.934Z,47.88
2023-04-08T04:44:37.848Z,47.95
2023-04-08T04:47:05.980Z,47.80
2023-04-08T04:49:33.870Z,47.91
2023-04-08T04:52:01.780Z,47.95
2023-04-08T04:54:31.141Z,47.91
2023-04-08T04:56:59.015Z,48.04
2023-04-08T04:59:26.907Z,48.10
2023-04-08T05:01:57.778Z,48.05
2023-04-08T05:04:25.923Z,48.10
2023-04-08T05:06:53.829Z,48.15
2023-04-08T05:09:21.808Z,48.15
2023-04-08T05:11:51.181Z,48.23
2023-04-08T05:14:19.163Z,48.54
2023-04-08T05:16:46.997Z,48.56
2023-04-08T05:19:17.845Z,48.76
2023-04-08T05:21:45.800Z,48.84
2023-04-08T05:24:13.687Z,48.92
2023-04-08T05:26:41.671Z,48.86
2023-04-08T05:29:12.126Z,48.98
2023-04-08T05:31:40.100Z,49.16
2023-04-08T05:34:07.996Z,49.19
2023-04-08T05:36:36.300Z,49.04
2023-04-08T05:39:04.467Z,49.05
2023-04-08T05:41:32.426Z,48.99
2023-04-08T05:44:01.004Z,48.93
2023-04-08T05:46:30.557Z,48.89
2023-04-08T05:48:58.426Z,48.94
2023-04-08T05:51:26.353Z,48.84
2023-04-08T05:53:54.328Z,48.92
2023-04-08T05:56:22.534Z,48.78
2023-04-08T05:58:50.907Z,48.90
2023-04-08T06:01:19.000Z,48.73
2023-04-08T06:03:48.439Z,48.74
2023-04-08T06:06:16.512Z,48.88
2023-04-08T06:08:44.430Z,49.01
2023-04-08T06:11:12.319Z,49.03
2023-04-08T06:13:40.426Z,49.09
2023-04-08T06:16:12.372Z,49.25
2023-04-08T06:18:40.420Z,49.22
2023-04-08T06:21:16.999Z,49.18
2023-04-08T06:23:44.947Z,49.32
2023-04-08T06:26:13.540Z,49.08
2023-04-08T06:28:41.444Z,49.06
2023-04-08T06:31:09.341Z,49.06
2023-04-08T06:33:37.230Z,49.07
2023-04-08T06:36:05.451Z,48.96
2023-04-08T06:38:34.811Z,49.11
2023-04-08T06:41:06.015Z,49.10
2023-04-08T06:43:34.204Z,48.96
2023-04-08T06:46:02.434Z,48.97
2023-04-08T06:48:30.868Z,49.24
2023-04-08T06:50:58.948Z,49.17
2023-04-08T06:53:27.016Z,49.34
2023-04-08T06:55:56.623Z,49.45
2023-04-08T06:58:24.566Z,49.49
2023-04-08T07:00:53.403Z,49.61
2023-04-08T07:03:22.597Z,49.82
2023-04-08T07:05:50.717Z,49.79
2023-04-08T07:08:20.126Z,49.79
2023-04-08T07:10:48.319Z,49.82
2023-04-08T07:13:17.624Z,49.97
2023-04-08T07:15:45.595Z,50.04
2023-04-08T07:18:13.979Z,50.20
2023-04-08T07:20:42.187Z,50.24
2023-04-08T07:23:10.857Z,50.30
2023-04-08T07:25:38.813Z,50.06
2023-04-08T07:28:06.908Z,50.20
2023-04-08T07:30:36.206Z,50.28
2023-04-08T07:33:04.153Z,50.39
2023-04-08T07:35:32.165Z,50.58
2023-04-08T07:38:00.160Z,50.69
2023-04-08T07:40:28.095Z,50.78
2023-04-08T07:42:56.064Z,50.64
2023-04-08T07:45:23.961Z,50.96
2023-04-08T07:47:53.317Z,51.06
2023-04-08T07:50:21.514Z,50.85
2023-04-08T07:52:49.445Z,50.75
2023-04-08T07:55:17.508Z,50.90
2023-04-08T07:57:46.150Z,50.95
2023-04-08T08:00:20.912Z,51.08
2023-04-08T08:02:49.317Z,51.07
2023-04-08T08:05:19.020Z,51.21
2023-04-08T08:07:47.022Z,51.15
2023-04-08T08:10:15.270Z,51.13
2023-04-08T08:12:43.226Z,51.27
2023-04-08T08:15:12.238Z,51.22
2023-04-08T08:17:40.576Z,51.30
2023-04-08T08:20:10.500Z,51.05
2023-04-08T08:22:50.907Z,51.08
2023-04-08T08:25:26.252Z,51.31
2023-04-08T08:27:55.504Z,51.46
2023-04-08T08:30:23.654Z,51.18
2023-04-08T08:32:52.302Z,51.35
2023-04-08T08:35:20.491Z,51.13
2023-04-08T08:37:50.055Z,51.37
2023-04-08T08:40:18.152Z,51.18
2023-04-08T08:42:51.586Z,51.36
2023-04-08T08:45:20.337Z,51.21
2023-04-08T08:47:50.846Z,51.37
2023-04-08T08:50:19.501Z,51.31
2023-04-08T08:52:52.055Z,51.23
2023-04-08T08:55:36.291Z,51.26
2023-04-08T08:58:08.703Z,51.22
2023-04-08T09:00:38.306Z,50.86
2023-04-08T09:03:17.197Z,50.95
2023-04-08T09:05:52.280Z,50.82
2023-04-08T09:08:32.146Z,51.03
2023-04-08T09:11:13.549Z,50.75
2023-04-08T09:13:41.528Z,50.68
2023-04-08T09:16:10.557Z,50.80
2023-04-08T09:18:38.871Z,50.83
2023-04-08T09:21:07.945Z,50.71
2023-04-08T09:23:44.421Z,50.46
2023-04-08T09:26:13.595Z,50.34
2023-04-08T09:28:42.584Z,50.17
2023-04-08T09:31:23.069Z,50.03
2023-04-08T09:33:51.484Z,49.71
2023-04-08T09:36:20.058Z,50.13
2023-04-08T09:38:50.630Z,50.04
2023-04-08T09:41:18.983Z,49.66
2023-04-08T09:43:50.848Z,49.65
2023-04-08T09:46:23.723Z,48.90
2023-04-08T09:48:55.540Z,48.65
2023-04-08T09:51:24.449Z,48.34
2023-04-08T09:53:59.078Z,47.86
2023-04-08T09:56:27.567Z,47.54
2023-04-08T09:59:00.512Z,47.50
2023-04-08T10:01:30.819Z,47.01
2023-04-08T10:03:59.617Z,47.12
2023-04-08T10:06:32.044Z,47.14
2023-04-08T10:09:02.172Z,47.26
2023-04-08T10:11:30.087Z,46.75
2023-04-08T10:13:58.020Z,46.29
2023-04-08T10:16:27.574Z,46.48
2023-04-08T10:18:57.021Z,45.97
2023-04-08T10:21:38.710Z,46.02
2023-04-08T10:24:11.171Z,45.99
2023-04-08T10:26:42.605Z,45.37
2023-04-08T10:29:35.690Z,44.83
2023-04-08T10:32:03.627Z,44.61
2023-04-08T10:34:31.551Z,44.73
2023-04-08T10:37:03.932Z,44.45
2023-04-08T10:39:33.579Z,43.75
2023-04-08T10:44:31.413Z,43.15
2023-04-08T10:47:00.282Z,43.51
2023-04-08T10:49:34.742Z,43.05
2023-04-08T10:52:02.705Z,42.42
2023-04-08T10:54:31.402Z,42.25
2023-04-08T10:57:00.868Z,41.58
2023-04-08T10:59:29.273Z,40.69
2023-04-08T11:01:58.590Z,40.28
2023-04-08T11:04:27.441Z,39.61
2023-04-08T11:06:55.589Z,38.59
2023-04-08T11:09:23.691Z,37.46
2023-04-08T11:11:52.243Z,38.08
2023-04-08T11:14:22.546Z,38.71
2023-04-08T11:16:50.548Z,37.64
2023-04-08T11:19:18.803Z,37.71
2023-04-08T11:21:46.879Z,37.92
2023-04-08T11:24:16.472Z,38.64
2023-04-08T11:26:44.582Z,38.50
2023-04-08T11:29:14.353Z,38.65
2023-04-08T11:31:44.307Z,37.96
2023-04-08T11:34:12.634Z,37.55
2023-04-08T11:36:41.989Z,36.73
2023-04-08T11:39:10.593Z,36.12
2023-04-08T11:41:39.494Z,35.88
2023-04-08T11:44:07.866Z,35.77
2023-04-08T11:46:36.339Z,34.62
2023-04-08T11:49:07.904Z,34.51
2023-04-08T11:51:36.226Z,34.48
2023-04-08T11:54:06.222Z,34.99
2023-04-08T11:56:45.697Z,34.51
2023-04-08T11:59:13.626Z,33.95
2023-04-08T12:01:41.569Z,34.21
2023-04-08T12:04:12.412Z,32.54
2023-04-08T12:06:43.573Z,32.56
2023-04-08T12:09:11.591Z,32.21
2023-04-08T12:11:39.516Z,31.97
2023-04-08T12:14:07.542Z,31.85
2023-04-08T12:16:35.544Z,32.20
2023-04-08T12:19:03.571Z,30.80
2023-04-08T12:21:33.990Z,30.10
2023-04-08T12:24:02.025Z,30.02
2023-04-08T12:26:29.925Z,29.52
2023-04-08T12:28:57.897Z,29.14
2023-04-08T12:31:27.783Z,29.06
2023-04-08T12:33:55.739Z,29.47
2023-04-08T12:36:23.668Z,29.56
2023-04-08T12:38:53.129Z,29.71
2023-04-08T12:41:21.810Z,29.54
2023-04-08T12:43:49.711Z,28.92
2023-04-08T12:46:17.794Z,28.97
2023-04-08T12:48:47.540Z,28.79
2023-04-08T12:51:15.866Z,28.80
2023-04-08T12:53:44.075Z,28.84
2023-04-08T12:56:13.377Z,28.52
2023-04-08T12:58:41.423Z,28.32
2023-04-08T13:01:09.382Z,28.03
2023-04-08T13:03:37.506Z,27.49
2023-04-08T13:06:05.473Z,27.55
2023-04-08T13:08:33.414Z,27.26
2023-04-08T13:11:01.341Z,27.75
2023-04-08T13:13:30.643Z,27.41
2023-04-08T13:15:58.962Z,27.57
2023-04-08T13:18:27.230Z,27.63
2023-04-08T13:20:58.261Z,27.51
2023-04-08T13:23:26.589Z,27.32
2023-04-08T13:25:54.549Z,27.34
2023-04-08T13:28:22.421Z,27.50
2023-04-08T13:30:51.860Z,27.76
2023-04-08T13:33:19.787Z,27.32
2023-04-08T13:35:47.760Z,27.03
2023-04-08T13:38:15.685Z,26.19
2023-04-08T13:40:43.827Z,26.53
2023-04-08T13:43:11.744Z,26.38
2023-04-08T13:45:40.692Z,26.36
2023-04-08T13:48:10.093Z,26.70
2023-04-08T13:50:38.952Z,26.67
2023-04-08T13:53:06.876Z,27.08
2023-04-08T13:55:34.773Z,26.55
2023-04-08T13:58:06.469Z,26.39
2023-04-08T14:00:36.684Z,26.79
2023-04-08T14:03:04.875Z,26.65
2023-04-08T14:05:34.275Z,26.87
2023-04-08T14:08:02.154Z,27.50
2023-04-08T14:10:30.532Z,27.54
2023-04-08T14:12:58.482Z,27.31
2023-04-08T14:15:26.341Z,27.53
2023-04-08T14:17:54.261Z,27.89
2023-04-08T14:20:22.419Z,26.55
2023-04-08T14:22:51.925Z,26.41
2023-04-08T14:25:19.882Z,25.89
2023-04-08T14:27:57.346Z,26.30
2023-04-08T14:30:26.887Z,26.88
2023-04-08T14:32:55.317Z,27.14
2023-04-08T14:35:23.282Z,27.31
2023-04-08T14:37:52.568Z,27.52
2023-04-08T14:40:20.448Z,27.64
2023-04-08T14:42:49.867Z,28.02
2023-04-08T14:45:18.102Z,27.73
2023-04-08T14:47:46.090Z,27.53
2023-04-08T14:50:14.081Z,27.47
2023-04-08T14:52:42.173Z,27.35
2023-04-08T14:55:11.672Z,27.58
2023-04-08T14:57:39.559Z,27.78
2023-04-08T15:00:08.996Z,27.76
2023-04-08T15:02:36.995Z,27.71
2023-04-08T15:05:05.566Z,28.01
2023-04-08T15:07:33.482Z,27.99
2023-04-08T15:10:01.978Z,27.78
2023-04-08T15:12:33.046Z,27.64
2023-04-08T15:15:00.978Z,27.27
2023-04-08T15:17:28.982Z,27.52
2023-04-08T15:19:57.296Z,27.41
2023-04-08T15:22:25.282Z,27.37
2023-04-08T15:24:53.270Z,27.38
2023-04-08T15:27:21.600Z,27.29
2023-04-08T15:29:50.842Z,27.07
2023-04-08T15:32:18.881Z,27.41
2023-04-08T15:34:47.472Z,27.67
2023-04-08T15:37:15.542Z,28.09
2023-04-08T15:39:43.470Z,27.93
2023-04-08T15:42:11.329Z,28.13
2023-04-08T15:44:39.262Z,28.37
2023-04-08T15:47:08.997Z,28.47
2023-04-08T15:49:36.940Z,28.65
2023-04-08T15:52:05.010Z,28.79
2023-04-08T15:54:34.517Z,29.01
2023-04-08T15:57:03.505Z,29.25
2023-04-08T15:59:31.504Z,29.19
2023-04-08T16:01:59.490Z,29.61
2023-04-08T16:04:29.041Z,29.84
2023-04-08T16:06:57.017Z,29.91
2023-04-08T16:09:26.808Z,30.21
2023-04-08T16:11:54.813Z,30.25
2023-04-08T16:14:22.760Z,30.21
2023-04-08T16:16:51.335Z,30.44
2023-04-08T16:19:19.283Z,30.33
2023-04-08T16:21:48.710Z,30.34
2023-04-08T16:24:16.766Z,30.30
2023-04-08T16:26:44.831Z,30.33
2023-04-08T16:29:12.764Z,30.52
2023-04-08T16:31:40.978Z,30.71
2023-04-08T16:34:09.125Z,31.08
2023-04-08T16:36:37.136Z,30.78
2023-04-08T16:39:06.452Z,30.88
2023-04-08T16:41:34.572Z,30.89
2023-04-08T16:44:02.533Z,30.41
2023-04-08T16:46:30.537Z,30.60
2023-04-08T16:48:58.944Z,30.57
2023-04-08T16:51:30.050Z,30.61
2023-04-08T16:54:00.855Z,30.56
2023-04-08T16:56:30.485Z,30.83
2023-04-08T16:58:58.672Z,30.67
2023-04-08T17:01:27.082Z,30.56
2023-04-08T17:03:55.368Z,31.09
2023-04-08T17:06:23.965Z,31.48
2023-04-08T17:08:52.621Z,31.50
2023-04-08T17:11:21.948Z,31.81
2023-04-08T17:13:51.637Z,32.01
2023-04-08T17:16:19.682Z,32.18
2023-04-08T17:18:47.834Z,32.56
2023-04-08T17:21:16.015Z,32.42
2023-04-08T17:23:43.986Z,32.29
2023-04-08T17:26:12.893Z,32.33
2023-04-08T17:28:40.806Z,32.32
2023-04-08T17:31:10.646Z,32.55
2023-04-08T17:33:38.649Z,32.41
2023-04-08T17:36:07.960Z,33.12
2023-04-08T17:38:39.835Z,33.27
2023-04-08T17:41:10.063Z,33.30
2023-04-08T17:43:38.087Z,33.22
2023-04-08T17:46:06.268Z,33.49
2023-04-08T17:48:35.563Z,33.98
2023-04-08T17:51:03.729Z,33.84
2023-04-08T17:53:32.112Z,34.03
2023-04-08T17:56:00.133Z,34.43
2023-04-08T17:58:28.411Z,34.89
2023-04-08T18:00:56.358Z,34.92
2023-04-08T18:03:24.441Z,35.55
2023-04-08T18:05:55.177Z,35.65
2023-04-08T18:08:23.142Z,35.86
2023-04-08T18:10:51.092Z,35.92
2023-04-08T18:13:18.976Z,36.30
2023-04-08T18:15:46.919Z,36.61
2023-04-08T18:18:19.728Z,36.82
2023-04-08T18:20:47.676Z,37.19
2023-04-08T18:23:17.216Z,37.19
2023-04-08T18:25:47.299Z,37.55
2023-04-08T18:28:15.661Z,37.83
2023-04-08T18:30:43.813Z,38.05
2023-04-08T18:33:11.817Z,38.22
2023-04-08T18:35:39.781Z,38.79
2023-04-08T18:38:07.854Z,38.90
2023-04-08T18:40:37.706Z,39.87
2023-04-08T18:43:06.079Z,39.94
2023-04-08T18:45:34.111Z,40.58
2023-04-08T18:48:02.171Z,40.68
2023-04-08T18:50:30.380Z,41.10
2023-04-08T18:52:58.335Z,41.22
2023-04-08T18:55:26.398Z,41.80
2023-04-08T18:57:55.796Z,41.84
2023-04-08T19:00:23.894Z,42.20
2023-04-08T19:02:52.057Z,42.20
2023-04-08T19:05:20.325Z,42.59
2023-04-08T19:07:48.677Z,42.80
2023-04-08T19:10:16.591Z,42.75
2023-04-08T19:12:44.761Z,42.84
2023-04-08T19:15:14.789Z,43.56
2023-04-08T19:17:42.725Z,43.54
2023-04-08T19:20:11.584Z,43.97
2023-04-08T19:22:40.750Z,44.03
2023-04-08T19:25:09.259Z,44.33
2023-04-08T19:27:37.671Z,44.72
2023-04-08T19:30:06.807Z,44.94
2023-04-08T19:32:36.351Z,44.81
2023-04-08T19:35:04.411Z,45.20
2023-04-08T19:37:32.294Z,45.19
2023-04-08T19:40:00.270Z,45.09
2023-04-08T19:42:28.353Z,45.24
2023-04-08T19:44:56.303Z,45.70
2023-04-08T19:47:24.265Z,45.65
2023-04-08T19:49:53.603Z,45.64
2023-04-08T19:52:21.565Z,45.81
2023-04-08T19:54:51.269Z,45.96
2023-04-08T19:57:19.373Z,46.03
2023-04-08T19:59:47.976Z,46.42
2023-04-08T20:02:16.007Z,46.41
2023-04-08T20:04:44.070Z,46.52
2023-04-08T20:07:13.385Z,46.45
2023-04-08T20:09:41.311Z,46.60
2023-04-08T20:12:09.193Z,46.90
2023-04-08T20:14:40.449Z,47.03
2023-04-08T20:17:08.398Z,47.43
2023-04-08T20:19:36.421Z,47.57
2023-04-08T20:22:04.354Z,47.58
2023-04-08T20:24:34.077Z,47.68
2023-04-08T20:27:02.024Z,47.77
2023-04-08T20:29:29.901Z,47.71
2023-04-08T20:31:57.916Z,48.04
2023-04-08T20:34:26.195Z,48.18
2023-04-08T20:36:54.175Z,48.19
2023-04-08T20:39:29.174Z,48.14
2023-04-08T20:41:59.460Z,48.20
2023-04-08T20:44:27.467Z,48.20
2023-04-08T20:46:55.825Z,48.53
2023-04-08T20:49:24.254Z,48.65
2023-04-08T20:51:52.149Z,48.87
2023-04-08T20:54:20.164Z,48.93
2023-04-08T20:56:48.058Z,48.96
2023-04-08T20:59:17.347Z,49.29
2023-04-08T21:01:45.724Z,49.33
2023-04-08T21:04:13.734Z,49.27
2023-04-08T21:06:42.171Z,49.44
2023-04-08T21:09:11.395Z,49.60
2023-04-08T21:11:39.510Z,49.62
2023-04-08T21:14:07.408Z,49.76
2023-04-08T21:16:36.900Z,49.91
2023-04-08T21:19:04.958Z,49.83
2023-04-08T21:21:32.879Z,49.89
2023-04-08T21:24:01.694Z,49.95
2023-04-08T21:26:29.638Z,49.96
2023-04-08T21:28:57.733Z,50.14
2023-04-08T21:31:26.883Z,50.12
2023-04-08T21:33:56.150Z,50.23
2023-04-08T21:36:24.000Z,50.31
2023-04-08T21:38:52.039Z,50.52
2023-04-08T21:41:21.383Z,50.47
2023-04-08T21:43:50.643Z,50.45
2023-04-08T21:46:18.628Z,50.47
2023-04-08T21:48:46.573Z,50.60
2023-04-08T21:51:17.562Z,50.54
2023-04-08T21:53:45.604Z,50.71
2023-04-08T21:56:14.097Z,50.71
2023-04-08T21:58:42.226Z,50.82
2023-04-08T22:01:10.188Z,50.81
2023-04-08T22:03:38.309Z,50.80
2023-04-08T22:06:10.959Z,50.84
2023-04-08T22:08:42.415Z,50.92
2023-04-08T22:11:10.300Z,51.35
2023-04-08T22:13:38.283Z,51.25
2023-04-08T22:16:08.139Z,51.36
2023-04-08T22:18:36.083Z,51.18
2023-04-08T22:21:04.083Z,51.20
2023-04-08T22:23:31.939Z,51.54
2023-04-08T22:26:01.188Z,51.46
2023-04-08T22:28:29.210Z,51.32
2023-04-08T22:30:57.123Z,51.44
2023-04-08T22:33:25.688Z,51.42
2023-04-08T22:35:53.708Z,51.42
2023-04-08T22:38:21.627Z,51.48
2023-04-08T22:40:49.518Z,51.55
2023-04-08T22:43:18.790Z,51.82
2023-04-08T22:45:46.906Z,51.51
2023-04-08T22:48:14.852Z,51.55
2023-04-08T22:50:42.741Z,51.76
2023-04-08T22:53:10.655Z,51.85
2023-04-08T22:55:38.576Z,51.93
2023-04-08T22:58:06.594Z,52.03
2023-04-08T23:00:35.838Z,52.02
2023-04-08T23:03:04.853Z,51.93
2023-04-08T23:05:33.482Z,52.07
2023-04-08T23:08:01.550Z,52.08
2023-04-08T23:10:29.423Z,52.12
2023-04-08T23:12:57.367Z,51.88
2023-04-08T23:15:25.262Z,51.94
2023-04-08T23:17:54.510Z,52.21
2023-04-08T23:20:22.522Z,51.75
2023-04-08T23:22:50.692Z,52.08
2023-04-08T23:25:18.743Z,52.10
2023-04-08T23:27:46.829Z,52.20
2023-04-08T23:30:14.963Z,52.52
2023-04-08T23:32:43.019Z,52.28
2023-04-08T23:35:12.456Z,52.38
2023-04-08T23:37:40.449Z,52.45
2023-04-08T23:40:09.865Z,52.49
2023-04-08T23:42:37.860Z,52.48
2023-04-08T23:45:06.820Z,52.76
2023-04-08T23:47:34.758Z,52.72
2023-04-08T23:50:02.739Z,52.89
2023-04-08T23:52:31.987Z,52.90
2023-04-08T23:54:59.895Z,53.05
2023-04-08T23:57:27.799Z,53.04
2023-04-08T23:59:55.676Z,53.17
